Content
SEND FEEDBACK

Daily
Averages
Monthly
Summary
Sweden

BODEN, SWEDEN


Home > Europe > Sweden
Elevation: 60 feet     Latitude: 65 50N     Longitude: 021 27E

WEATHER
 
SELECT A DAY
Number of Records: 279,716;   Date Range: 1/10/97 - 10/18/14
 
SHARE

PRINT THIS DATA

[ ← Previous Day ]
WEATHER ALMANAC - JANUARY 31, 2013
[ Next Day → ]
[ °C ]   °F
Weather ElementAverageHighLow
Temperature29.3 °F33.8 °F (12:20 am)24 °F (11:00 pm)
Dewpoint28.4 °F32 °F (12:20 am)23 °F (10:50 pm)
Humidity96.2 %100 % (1:00 am)92 % (2:00 pm)
Barometer28.75 in28.85 in (11:00 pm)28.65 in (12:20 am)
Wind Speed7.5 mph13.8 mph (7:50 pm)
Weather ElementAverage
Visibility4.7 mi
Wind DirectionWSW (257.8 °)

Weather ElementTotal
Precipitation---
Heating Degree Days36.1 (Base 65)
Averaged from 67 records on January 31, 2013
WEATHER CONDITIONS BREAKOUT
WIND DIRECTION BREAKOUT
WEATHER BY HOUR - JANUARY 31, 2013
[ °C ]   °F
Local TimeTemperatureDewpointHumidityBarometerVisibilityWind DirectionWind SpeedGust SpeedPrecipitationEventsConditions
12:20 AM33.8 °F32.0 °F93 %28.65 in6.2 miSouth (170°)12.7 mphOvercast
12:50 AM33.8 °F32.0 °F93 %28.65 inSouth (170°)10.4 mphLight Ice Pellets
1:00 AM32.0 °F32.0 °F100 %28.67 in7.0 miSouth (180°)8.9 mphSnowLight Snow Showers
1:20 AM33.8 °F32.0 °F93 %28.65 in6.2 miSouth (180°)8.1 mphOvercast
1:50 AM33.8 °F32.0 °F93 %28.65 in6.2 miSouth (170°)8.1 mphOvercast
2:00 AM32.0 °F32.0 °F100 %28.68 in9.0 miSouth (190°)8.9 mphRainRain
2:20 AM33.8 °F32.0 °F93 %28.65 in6.2 miSouth (170°)8.1 mph
2:50 AM33.8 °F32.0 °F93 %28.65 in6.2 miSouth (170°)9.2 mphOvercast
3:00 AM32.0 °F32.0 °F99 %28.68 in4.0 miSouth (190°)6.7 mphMist
3:20 AM33.8 °F32.0 °F93 %28.65 in6.2 miSouth (180°)6.9 mphOvercast
3:50 AM33.8 °F32.0 °F93 %28.65 in6.2 miSouth (180°)6.9 mph
4:20 AM33.8 °F32.0 °F93 %28.68 in6.2 miSouth (190°)5.8 mph
4:52 AM33.8 °F32.0 °F93 %28.68 in5.0 miSSW (200°)4.6 mphSnowLight Snow
5:00 AM32.0 °F32.0 °F100 %28.69 in4.0 miSW (220°)4.5 mphN Precipitation
5:20 AM33.8 °F32.0 °F93 %28.68 inSSW (210°)3.5 mphRain-SnowLight Rain
5:50 AM32.0 °F32.0 °F100 %28.68 in5.0 miSW (220°)5.8 mphSnowLight Snow
6:00 AM32.0 °F32.0 °F99 %28.70 in7.0 miSSW (210°)4.5 mphN Precipitation
6:20 AM32.0 °F32.0 °F100 %28.68 in1.9 miSSW (210°)5.8 mphSnowLight Snow Grains
6:50 AM32.0 °F32.0 °F100 %28.68 in2.2 miSSW (210°)5.8 mphSnowLight Snow
7:00 AM32.0 °F32.0 °F99 %28.71 in2.0 miSSW (210°)4.5 mphSnowLight Snow
7:20 AM32.0 °F32.0 °F100 %28.71 in3.1 miSSW (210°)4.6 mphSnowLight Snow
7:50 AM32.0 °F32.0 °F100 %28.71 in2.2 miSSW (210°)4.6 mphSnowLight Snow
8:00 AM32.0 °F32.0 °F99 %28.72 in2.0 miSW (220°)4.5 mphSnowSnow Grains
8:20 AM32.0 °F32.0 °F100 %28.71 in5.6 miWSW (240°)3.5 mphMostly Cloudy
8:50 AM32.0 °F32.0 °F100 %28.71 in6.2 miVariable2.3 mphMostly Cloudy
9:00 AM32.0 °F32.0 °F98 %28.74 in9.0 miWest (260°)2.2 mphSnowLight Snow
9:20 AM32.0 °F32.0 °F100 %28.74 in6.2 miVariable2.3 mphSnowLight Snow Grains
9:50 AM32.0 °F30.2 °F93 %28.74 in2.5 miWest (270°)4.6 mphSnowLight Snow
10:20 AM30.2 °F30.2 °F100 %28.74 in6.2 miWest (280°)4.6 mphSnowLight Snow
10:50 AM30.2 °F30.2 °F100 %28.74 in5.0 miWest (280°)4.6 mphSnowLight Snow
11:00 AM29.0 °F29.0 °F100 %28.77 in2.0 miWNW (290°)4.5 mphSnowLight Snow
11:20 AM28.4 °F28.4 °F100 %28.77 in1.6 miWNW (290°)4.6 mphSnowLight Snow
11:50 AM28.4 °F28.4 °F100 %28.77 in1.9 miWNW (300°)4.6 mphSnowLight Snow
12:00 PM29.0 °F29.0 °F99 %28.78 in3.0 miNW (310°)4.5 mphSnowLight Snow
12:20 PM28.4 °F28.4 °F100 %28.77 in3.1 miWNW (300°)5.8 mphSnowLight Snow
12:50 PM28.4 °F28.4 °F100 %28.77 in6.2 miNW (320°)5.8 mphSnowLight Snow
1:00 PM28.0 °F28.0 °F98 %28.79 in9.0 miNW (320°)6.7 mphIce Crystals
1:20 PM28.4 °F26.6 °F93 %28.77 in6.2 miNW (320°)6.9 mphSnowLight Snow
1:50 PM28.4 °F26.6 °F93 %28.77 in2.5 miNW (320°)8.1 mphSnowSnow
2:00 PM28.0 °F27.0 °F92 %28.80 in3.0 miNNW (330°)6.7 mphSnowLight Snow
2:20 PM26.6 °F26.6 °F100 %28.77 in6.2 miNNW (330°)5.8 mphSnowLight Snow
2:50 PM26.6 °F26.6 °F100 %28.77 in6.2 miNNW (330°)6.9 mphSnowLight Snow
3:00 PM27.0 °F26.0 °F93 %28.79 in19.0 miNNW (330°)6.7 mphSnowLight Snow
3:20 PM26.6 °F24.8 °F93 %28.77 in3.1 miNNW (330°)6.9 mphSnowLight Snow
3:50 PM26.6 °F24.8 °F93 %28.77 in1.2 miNNW (330°)10.4 mphSnowLight Snow
4:20 PM26.6 °F26.6 °F100 %28.80 in1.4 miNW (320°)9.2 mphSnowSnow
4:50 PM26.6 °F26.6 °F100 %28.80 in1.1 miNW (310°)10.4 mphSnowSnow
5:00 PM26.0 °F25.0 °F94 %28.80 in1.0 miNW (320°)11.2 mphSnowLight Snow
5:20 PM26.6 °F26.6 °F100 %28.80 in2.5 miNW (310°)11.5 mphSnowLight Snow
5:50 PM26.6 °F24.8 °F93 %28.80 in5.0 miNW (310°)11.5 mphSnowLight Snow
6:00 PM26.0 °F25.0 °F93 %28.80 in3.0 miNW (320°)11.2 mphLight Ice Pellets
6:20 PM26.6 °F24.8 °F93 %28.80 in2.8 miNW (310°)10.4 mphSnowLight Snow
6:50 PM26.6 °F24.8 °F93 %28.80 in2.5 miNW (320°)11.5 mphSnowLight Snow
7:00 PM26.0 °F25.0 °F92 %28.81 in3.0 miNW (320°)13.4 mphLight Ice Pellets
7:20 PM26.6 °F24.8 °F93 %28.80 inNW (310°)12.7 mphSnowLight Snow
7:50 PM26.6 °F24.8 °F93 %28.80 in3.7 miNW (310°)13.8 mphSnowLight Snow
8:00 PM25.0 °F24.0 °F95 %28.81 in6.0 miNW (320°)11.2 mphN Precipitation
8:20 PM26.6 °F24.8 °F93 %28.80 in6.2 miNW (310°)11.5 mphSnowLight Snow
8:50 PM26.6 °F24.8 °F93 %28.80 in3.1 miWNW (300°)11.5 mphSnowLight Snow
9:00 PM25.0 °F24.0 °F95 %28.83 in2.0 miNW (310°)11.2 mphN Precipitation
9:20 PM26.6 °F24.8 °F93 %28.82 inWNW (290°)9.2 mphSnowLight Snow
9:50 PM26.6 °F24.8 °F93 %28.82 in5.0 miWNW (290°)8.1 mphSnowLight Snow
10:20 PM24.8 °F24.8 °F100 %28.82 in6.2 miWNW (290°)9.2 mphSnowLight Snow
10:50 PM24.8 °F23.0 °F93 %28.82 in6.2 miWNW (290°)8.1 mphSnowLight Snow
11:00 PM24.0 °F23.0 °F94 %28.85 in6.0 miWNW (300°)8.9 mphN Precipitation
11:20 PM24.8 °F23.0 °F93 %28.82 in4.3 miWNW (290°)6.9 mphSnowLight Snow
11:50 PM24.8 °F23.0 °F93 %28.82 in6.2 miWest (270°)5.8 mphMostly Cloudy
Hourly data recorded from ESPA, located miles away from Boden, Sweden







STORIES FROM OUR PARTNERS